< < Back
Terminal Aerodrome Forecast


Current Version              Previous Versions:   1  2  3  4  5  6  7  8  9  

Terminal Aerodrome Forecast

028
FTUS42 KJAX 052339
TAFSSI
TAF
KSSI 052339Z 0600/0624 29010G15KT P6SM FEW040
     FM060200 28008KT P6SM SCT040
     FM061400 30010KT P6SM SKC=

Latest METAR

793
SAUS70 KWBC 060500 RRJ
MTRSSI
METAR KSSI 060453Z AUTO 29004KT 10SM FEW080 14/07 A2983 RMK AO2 SLP102
T01390072 402280139


USA.gov is the U.S. government's official web portal to all federal, state and local government web resources and services.